Bluff Point, New York
Current Conditions -  °F | °C
As of 8:53 AM on Monday 20 Oct 2014 (Local Time) from KPEO Reporting Station
Broken Clouds Broken Clouds  
Wind Chill: 36°   Ceiling: 11000
Heat Index: 43°   Visibility: 10mi
Dew Point: 33°   Wind: 14mph
Humidity: 68%   Direction: 200°SSW
Pressure: 29.98"   Gusts: NA
Location:  42.58°N, 77.128°W
Report Text: KPEO 201253Z AUTO 20012KT 10SM BKN110 06/01 A2998 RMK AO2 SLP158 T00610006
Loading
Personal Weather Stations






























Interactive Weather Map New forecast layout! Learn more

10-Day Weather Forecast

Advertisements
Track Severe Weather on mobile